createdAt,value
2018-09-25T00:00:12.019Z,1026.01
2018-09-25T00:01:12.035Z,1026
2018-09-25T00:02:12.053Z,1026.07
2018-09-25T00:04:12.088Z,1026.05
2018-09-25T00:05:12.104Z,1026.08
2018-09-25T00:06:12.123Z,1026.06
2018-09-25T00:07:12.140Z,1026.09
2018-09-25T00:08:12.156Z,1026.1
2018-09-25T00:09:12.174Z,1026.11
2018-09-25T00:10:12.206Z,1026.16
2018-09-25T00:11:12.209Z,1026.16
2018-09-25T00:12:12.225Z,1026.19
2018-09-25T00:13:12.243Z,1026.23
2018-09-25T00:14:12.260Z,1026.13
2018-09-25T00:15:12.279Z,1026.24
2018-09-25T00:16:12.294Z,1026.2
2018-09-25T00:17:12.312Z,1026.25
2018-09-25T00:18:12.333Z,1026.26
2018-09-25T00:20:12.367Z,1026.29
2018-09-25T00:21:12.381Z,1026.34
2018-09-25T00:22:12.398Z,1026.25
2018-09-25T00:23:12.414Z,1026.27
2018-09-25T00:24:12.433Z,1026.28
2018-09-25T00:25:12.449Z,1026.25
2018-09-25T00:26:12.473Z,1026.33
2018-09-25T00:27:12.485Z,1026.31
2018-09-25T00:28:12.502Z,1026.31
2018-09-25T00:29:12.519Z,1026.33
2018-09-25T00:30:12.545Z,1026.32
2018-09-25T00:31:12.553Z,1026.38
2018-09-25T00:32:12.570Z,1026.31
2018-09-25T00:33:12.588Z,1026.35
2018-09-25T00:34:12.603Z,1026.35
2018-09-25T00:36:12.639Z,1026.4
2018-09-25T00:37:12.656Z,1026.38
2018-09-25T00:38:12.672Z,1026.38
2018-09-25T00:39:12.689Z,1026.33
2018-09-25T00:40:12.707Z,1026.41
2018-09-25T00:41:12.723Z,1026.42
2018-09-25T00:42:12.740Z,1026.45
2018-09-25T00:43:12.762Z,1026.39
2018-09-25T00:44:12.775Z,1026.42
2018-09-25T00:45:12.790Z,1026.42
2018-09-25T00:46:12.814Z,1026.35
2018-09-25T00:47:12.906Z,1026.32
2018-09-25T00:48:12.844Z,1026.37
2018-09-25T00:49:12.862Z,1026.37
2018-09-25T00:51:12.895Z,1026.37
2018-09-25T00:52:12.916Z,1026.38
2018-09-25T00:53:12.929Z,1026.39
2018-09-25T00:54:12.948Z,1026.45
2018-09-25T00:55:12.966Z,1026.38
2018-09-25T00:56:12.982Z,1026.52
2018-09-25T00:57:12.999Z,1026.47
2018-09-25T00:58:13.015Z,1026.47
2018-09-25T00:59:13.033Z,1026.48
2018-09-25T01:00:13.050Z,1026.46
2018-09-25T01:01:13.066Z,1026.52
2018-09-25T01:02:13.083Z,1026.47
2018-09-25T01:03:13.100Z,1026.48
2018-09-25T01:04:13.116Z,1026.49
2018-09-25T01:05:13.135Z,1026.5
2018-09-25T01:06:13.152Z,1026.57
2018-09-25T01:07:13.168Z,1026.54
2018-09-25T01:08:13.186Z,1026.57
2018-09-25T01:09:13.204Z,1026.55
2018-09-25T01:10:13.218Z,1026.62
2018-09-25T01:11:13.337Z,1026.59
2018-09-25T01:12:13.254Z,1026.65
2018-09-25T01:13:13.272Z,1026.65
2018-09-25T01:14:13.291Z,1026.67
2018-09-25T01:15:13.306Z,1026.65
2018-09-25T01:16:13.322Z,1026.73
2018-09-25T01:17:13.340Z,1026.68
2018-09-25T01:18:13.356Z,1026.7
2018-09-25T01:19:13.409Z,1026.66
2018-09-25T01:20:13.397Z,1026.63
2018-09-25T01:21:13.407Z,1026.55
2018-09-25T01:23:13.443Z,1026.72
2018-09-25T01:24:13.459Z,1026.7
2018-09-25T01:25:13.477Z,1026.69
2018-09-25T01:26:13.491Z,1026.66
2018-09-25T01:27:13.509Z,1026.72
2018-09-25T01:28:13.526Z,1026.66
2018-09-25T01:29:13.543Z,1026.7
2018-09-25T01:30:13.560Z,1026.7
2018-09-25T01:31:13.576Z,1026.7
2018-09-25T01:32:13.598Z,1026.73
2018-09-25T01:33:13.619Z,1026.71
2018-09-25T01:34:13.627Z,1026.7
2018-09-25T01:35:13.646Z,1026.7
2018-09-25T01:36:13.661Z,1026.7
2018-09-25T01:37:13.679Z,1026.73
2018-09-25T01:39:13.712Z,1026.73
2018-09-25T01:40:13.729Z,1026.72
2018-09-25T01:41:13.755Z,1026.73
2018-09-25T01:42:13.766Z,1026.75
2018-09-25T01:43:13.785Z,1026.72
2018-09-25T01:44:13.796Z,1026.72
2018-09-25T01:45:13.813Z,1026.79
2018-09-25T01:46:13.831Z,1026.84
2018-09-25T01:47:13.848Z,1026.85
2018-09-25T01:48:13.864Z,1026.88
2018-09-25T01:49:13.881Z,1026.84
2018-09-25T01:50:13.900Z,1026.87
2018-09-25T01:51:13.920Z,1026.8
2018-09-25T01:52:13.936Z,1026.86
2018-09-25T01:53:13.950Z,1026.82
2018-09-25T01:55:13.983Z,1026.84
2018-09-25T01:56:13.999Z,1026.83
2018-09-25T01:57:14.019Z,1026.86
2018-09-25T01:58:14.033Z,1026.9
2018-09-25T01:59:14.050Z,1026.88
2018-09-25T02:00:14.067Z,1026.9
2018-09-25T02:01:14.085Z,1026.97
2018-09-25T02:02:14.101Z,1026.97
2018-09-25T02:03:14.118Z,1027.01
2018-09-25T02:04:14.142Z,1026.97
2018-09-25T02:05:14.152Z,1027.01
2018-09-25T02:06:14.174Z,1027.02
2018-09-25T02:07:14.189Z,1027
2018-09-25T02:08:14.203Z,1027.05
2018-09-25T02:09:14.220Z,1027.06
2018-09-25T02:11:14.254Z,1027.11
2018-09-25T02:12:14.269Z,1027.15
2018-09-25T02:13:14.287Z,1027.12
2018-09-25T02:14:14.304Z,1027.2
2018-09-25T02:15:14.322Z,1027.18
2018-09-25T02:16:14.337Z,1027.2
2018-09-25T02:17:14.355Z,1027.18
2018-09-25T02:18:14.370Z,1027.2
2018-09-25T02:19:14.388Z,1027.15
2018-09-25T02:20:14.409Z,1027.17
2018-09-25T02:21:14.423Z,1027.26
2018-09-25T02:22:14.439Z,1027.18
2018-09-25T02:23:14.461Z,1027.2
2018-09-25T02:24:14.472Z,1027.19
2018-09-25T02:26:14.508Z,1027.22
2018-09-25T02:27:14.523Z,1027.24
2018-09-25T02:28:14.540Z,1027.23
2018-09-25T02:29:14.558Z,1027.21
2018-09-25T02:30:14.576Z,1027.2
2018-09-25T02:31:14.590Z,1027.22
2018-09-25T02:32:14.612Z,1027.24
2018-09-25T02:33:14.626Z,1027.26
2018-09-25T02:34:14.640Z,1027.33
2018-09-25T02:35:14.658Z,1027.34
2018-09-25T02:36:14.676Z,1027.28
2018-09-25T02:37:14.693Z,1027.34
2018-09-25T02:38:14.708Z,1027.31
2018-09-25T02:39:14.736Z,1027.35
2018-09-25T02:40:14.742Z,1027.3
2018-09-25T02:41:14.759Z,1027.28
2018-09-25T02:42:14.775Z,1027.3
2018-09-25T02:43:14.792Z,1027.33
2018-09-25T02:44:14.809Z,1027.35
2018-09-25T02:45:14.826Z,1027.35
2018-09-25T02:46:14.843Z,1027.44
2018-09-25T02:47:14.860Z,1027.42
2018-09-25T02:48:14.878Z,1027.43
2018-09-25T02:49:14.891Z,1027.44
2018-09-25T02:50:14.911Z,1027.45
2018-09-25T02:51:14.926Z,1027.44
2018-09-25T02:52:14.948Z,1027.44
2018-09-25T02:53:14.963Z,1027.52
2018-09-25T02:54:14.978Z,1027.45
2018-09-25T02:55:14.995Z,1027.48
2018-09-25T02:56:15.010Z,1027.51
2018-09-25T02:58:15.043Z,1027.54
2018-09-25T02:59:15.061Z,1027.59
2018-09-25T03:00:15.077Z,1027.58
2018-09-25T03:01:15.093Z,1027.56
2018-09-25T03:02:15.110Z,1027.57
2018-09-25T03:03:15.135Z,1027.55
2018-09-25T03:04:15.154Z,1027.6
2018-09-25T03:05:15.164Z,1027.56
2018-09-25T03:06:15.178Z,1027.6
2018-09-25T03:07:15.193Z,1027.56
2018-09-25T03:08:15.210Z,1027.61
2018-09-25T03:09:15.227Z,1027.63
2018-09-25T03:10:15.242Z,1027.64
2018-09-25T03:11:15.260Z,1027.67
2018-09-25T03:12:15.277Z,1027.67
2018-09-25T03:14:15.311Z,1027.69
2018-09-25T03:15:15.331Z,1027.7
2018-09-25T03:16:15.345Z,1027.66
2018-09-25T03:17:15.360Z,1027.72
2018-09-25T03:18:15.376Z,1027.72
2018-09-25T03:19:15.496Z,1027.73
2018-09-25T03:20:15.415Z,1027.71
2018-09-25T03:21:15.427Z,1027.75
2018-09-25T03:22:15.443Z,1027.73
2018-09-25T03:23:15.460Z,1027.75
2018-09-25T03:24:15.510Z,1027.72
2018-09-25T03:25:15.494Z,1027.79
2018-09-25T03:26:15.555Z,1027.79
2018-09-25T03:27:15.526Z,1027.83
2018-09-25T03:28:15.545Z,1027.79
2018-09-25T03:30:15.592Z,1027.9
2018-09-25T03:31:15.601Z,1027.9
2018-09-25T03:32:15.620Z,1027.84
2018-09-25T03:33:15.625Z,1027.82
2018-09-25T03:34:15.647Z,1027.88
2018-09-25T03:35:15.660Z,1027.84
2018-09-25T03:36:15.677Z,1027.84
2018-09-25T03:37:15.693Z,1027.87
2018-09-25T03:38:15.710Z,1027.86
2018-09-25T03:39:15.727Z,1027.86
2018-09-25T03:40:15.741Z,1027.86
2018-09-25T03:41:15.759Z,1027.83
2018-09-25T03:42:15.776Z,1027.84
2018-09-25T03:43:15.793Z,1027.88
2018-09-25T03:44:15.808Z,1027.87
2018-09-25T03:46:15.843Z,1027.82
2018-09-25T03:47:15.858Z,1027.83
2018-09-25T03:48:15.875Z,1027.86
2018-09-25T03:49:15.893Z,1027.89
2018-09-25T03:50:15.909Z,1027.9
2018-09-25T03:51:15.924Z,1027.91
2018-09-25T03:52:15.944Z,1027.92
2018-09-25T03:53:15.958Z,1027.92
2018-09-25T03:54:15.976Z,1027.96
2018-09-25T03:55:15.994Z,1027.9
2018-09-25T03:56:16.008Z,1027.94
2018-09-25T03:57:16.025Z,1027.99
2018-09-25T03:58:16.079Z,1027.95
2018-09-25T03:59:16.058Z,1027.98
2018-09-25T04:01:16.093Z,1028.05
2018-09-25T04:02:16.108Z,1028.07
2018-09-25T04:03:16.124Z,1028.05
2018-09-25T04:04:16.141Z,1028.06
2018-09-25T04:05:16.164Z,1028.09
2018-09-25T04:06:16.315Z,1028.12
2018-09-25T04:07:16.192Z,1028.16
2018-09-25T04:08:16.210Z,1028.16
2018-09-25T04:09:16.222Z,1028.18
2018-09-25T04:10:16.240Z,1028.14
2018-09-25T04:11:16.256Z,1028.19
2018-09-25T04:12:16.273Z,1028.26
2018-09-25T04:13:16.290Z,1028.24
2018-09-25T04:14:16.306Z,1028.27
2018-09-25T04:15:16.324Z,1028.27
2018-09-25T04:16:16.340Z,1028.32
2018-09-25T04:17:16.356Z,1028.31
2018-09-25T04:18:16.373Z,1028.32
2018-09-25T04:19:16.388Z,1028.32
2018-09-25T04:20:16.405Z,1028.35
2018-09-25T04:21:16.423Z,1028.35
2018-09-25T04:22:16.438Z,1028.39
2018-09-25T04:23:16.456Z,1028.39
2018-09-25T04:24:16.471Z,1028.45
2018-09-25T04:25:16.488Z,1028.45
2018-09-25T04:26:16.505Z,1028.46
2018-09-25T04:27:16.521Z,1028.5
2018-09-25T04:28:16.542Z,1028.46
2018-09-25T04:29:16.556Z,1028.48
2018-09-25T04:30:16.570Z,1028.46
2018-09-25T04:31:16.589Z,1028.49
2018-09-25T04:33:16.620Z,1028.52
2018-09-25T04:34:16.636Z,1028.6
2018-09-25T04:35:16.652Z,1028.6
2018-09-25T04:36:16.669Z,1028.59
2018-09-25T04:37:16.743Z,1028.61
2018-09-25T04:38:16.702Z,1028.6
2018-09-25T04:39:16.719Z,1028.64
2018-09-25T04:40:16.734Z,1028.67
2018-09-25T04:41:16.752Z,1028.68
2018-09-25T04:42:16.768Z,1028.68
2018-09-25T04:43:16.785Z,1028.72
2018-09-25T04:44:16.801Z,1028.72
2018-09-25T04:45:16.818Z,1028.73
2018-09-25T04:46:16.832Z,1028.76
2018-09-25T04:47:16.851Z,1028.8
2018-09-25T04:49:16.883Z,1028.79
2018-09-25T04:50:16.900Z,1028.8
2018-09-25T04:51:16.916Z,1028.84
2018-09-25T04:52:16.931Z,1028.85
2018-09-25T04:53:17.046Z,1028.88
2018-09-25T04:54:16.965Z,1028.86
2018-09-25T04:55:16.980Z,1028.9
2018-09-25T04:56:16.998Z,1028.87
2018-09-25T04:57:17.014Z,1028.83
2018-09-25T04:58:17.031Z,1028.85
2018-09-25T04:59:18.049Z,1028.88
2018-09-25T05:00:17.063Z,1028.92
2018-09-25T05:01:17.080Z,1028.93
2018-09-25T05:02:17.109Z,1028.93
2018-09-25T05:03:17.112Z,1028.95
2018-09-25T05:05:17.146Z,1028.9
2018-09-25T05:06:17.162Z,1028.91
2018-09-25T05:07:17.180Z,1028.92
2018-09-25T05:08:17.193Z,1028.95
2018-09-25T05:09:18.213Z,1028.94
2018-09-25T05:10:17.228Z,1028.99
2018-09-25T05:11:17.246Z,1028.97
2018-09-25T05:12:17.331Z,1029.05
2018-09-25T05:13:17.278Z,1029.05
2018-09-25T05:14:17.293Z,1029.04
2018-09-25T05:15:17.310Z,1029.03
2018-09-25T05:16:17.327Z,1029.05
2018-09-25T05:17:17.346Z,1029.02
2018-09-25T05:18:17.490Z,1029.06
2018-09-25T05:19:17.376Z,1029
2018-09-25T05:21:17.410Z,1029.01
2018-09-25T05:22:17.429Z,1029.08
2018-09-25T05:23:17.494Z,1029.11
2018-09-25T05:24:17.460Z,1029.08
2018-09-25T05:25:17.475Z,1029.12
2018-09-25T05:26:17.495Z,1029.16
2018-09-25T05:27:17.508Z,1029.17
2018-09-25T05:28:17.525Z,1029.2
2018-09-25T05:29:17.545Z,1029.2
2018-09-25T05:30:17.558Z,1029.21
2018-09-25T05:31:17.576Z,1029.2
2018-09-25T05:32:17.592Z,1029.18
2018-09-25T05:33:17.708Z,1029.24
2018-09-25T05:34:17.626Z,1029.29
2018-09-25T05:36:17.661Z,1029.32
2018-09-25T05:37:17.675Z,1029.3
2018-09-25T05:38:17.692Z,1029.29
2018-09-25T05:39:17.709Z,1029.28
2018-09-25T05:40:17.727Z,1029.3
2018-09-25T05:41:17.745Z,1029.35
2018-09-25T05:42:17.760Z,1029.38
2018-09-25T05:43:17.776Z,1029.35
2018-09-25T05:44:17.801Z,1029.35
2018-09-25T05:45:17.810Z,1029.35
2018-09-25T05:46:17.827Z,1029.35
2018-09-25T05:47:17.845Z,1029.34
2018-09-25T05:48:17.885Z,1029.36
2018-09-25T05:49:17.878Z,1029.33
2018-09-25T05:50:17.896Z,1029.36
2018-09-25T05:51:17.913Z,1029.22
2018-09-25T05:52:17.929Z,1029.09
2018-09-25T05:53:17.948Z,1029.16
2018-09-25T05:54:17.966Z,1029.1
2018-09-25T05:55:17.981Z,1029.13
2018-09-25T05:56:18.006Z,1029.11
2018-09-25T05:57:18.021Z,1029.17
2018-09-25T05:58:18.041Z,1029.22
2018-09-25T05:59:18.060Z,1029.09
2018-09-25T06:00:18.080Z,1029.09
2018-09-25T06:01:18.102Z,1029.1
2018-09-25T06:02:18.123Z,1029.07
2018-09-25T06:03:18.143Z,1029.14
2018-09-25T06:04:18.165Z,1029.15
2018-09-25T06:05:18.188Z,1029.18
2018-09-25T06:06:18.208Z,1029.16
2018-09-25T06:08:18.256Z,1029.19
2018-09-25T06:09:18.321Z,1029.19
2018-09-25T06:10:18.301Z,1029.28
2018-09-25T06:11:18.327Z,1029.32
2018-09-25T06:12:18.351Z,1029.42
2018-09-25T06:13:18.372Z,1029.52
2018-09-25T06:14:18.394Z,1029.54
2018-09-25T06:15:18.419Z,1029.55
2018-09-25T06:16:18.447Z,1029.67
2018-09-25T06:17:18.465Z,1029.74
2018-09-25T06:18:18.492Z,1029.74
2018-09-25T06:19:18.518Z,1029.79
2018-09-25T06:20:18.542Z,1029.84
2018-09-25T06:21:18.565Z,1029.9
2018-09-25T06:22:18.591Z,1029.95
2018-09-25T06:24:18.640Z,1030.1
2018-09-25T06:25:18.667Z,1030.12
2018-09-25T06:26:18.690Z,1030.24
2018-09-25T06:27:18.716Z,1030.22
2018-09-25T06:28:18.741Z,1030.25
2018-09-25T06:29:18.768Z,1030.31
2018-09-25T06:30:18.794Z,1030.39
2018-09-25T06:31:18.819Z,1030.43
2018-09-25T06:32:18.844Z,1030.49
2018-09-25T06:33:18.871Z,1030.56
2018-09-25T06:34:18.897Z,1030.58
2018-09-25T06:35:18.923Z,1030.67
2018-09-25T06:36:18.949Z,1030.76
2018-09-25T06:37:19.036Z,1030.79
2018-09-25T06:38:19.003Z,1030.82
2018-09-25T06:40:19.055Z,1030.89
2018-09-25T06:41:19.082Z,1030.92
2018-09-25T06:42:19.110Z,1030.96
2018-09-25T06:43:19.136Z,1030.96
2018-09-25T06:44:19.164Z,1030.99
2018-09-25T06:45:19.190Z,1030.98
2018-09-25T06:46:19.298Z,1031.06
2018-09-25T06:47:19.309Z,1031.11
2018-09-25T06:48:19.272Z,1031.17
2018-09-25T06:49:19.314Z,1031.15
2018-09-25T06:50:19.327Z,1031.15
2018-09-25T06:51:19.354Z,1031.19
2018-09-25T06:52:19.382Z,1031.2
2018-09-25T06:53:19.410Z,1031.17
2018-09-25T06:54:19.437Z,1031.17
2018-09-25T06:56:19.492Z,1031.21
2018-09-25T06:57:19.521Z,1031.21
2018-09-25T06:58:19.547Z,1031.23
2018-09-25T06:59:19.574Z,1031.27
2018-09-25T07:00:19.607Z,1031.27
2018-09-25T07:01:19.632Z,1031.29
2018-09-25T07:02:19.659Z,1031.28
2018-09-25T07:03:19.687Z,1031.32
2018-09-25T07:04:19.715Z,1031.33
2018-09-25T07:05:19.743Z,1031.36
2018-09-25T07:06:19.771Z,1031.31
2018-09-25T07:07:19.805Z,1031.34
2018-09-25T07:08:19.827Z,1031.41
2018-09-25T07:09:19.856Z,1031.41
2018-09-25T07:11:19.918Z,1031.36
2018-09-25T07:12:19.940Z,1031.31
2018-09-25T07:13:19.968Z,1031.33
2018-09-25T07:14:19.996Z,1031.38
2018-09-25T07:15:20.025Z,1031.42
2018-09-25T07:16:20.052Z,1031.44
2018-09-25T07:17:20.083Z,1031.39
2018-09-25T07:18:20.109Z,1031.41
2018-09-25T07:19:20.136Z,1031.41
2018-09-25T07:20:20.162Z,1031.42
2018-09-25T07:21:20.192Z,1031.51
2018-09-25T07:22:20.221Z,1031.48
2018-09-25T07:23:20.246Z,1031.49
2018-09-25T07:24:20.275Z,1031.5
2018-09-25T07:25:20.309Z,1031.44
2018-09-25T07:26:20.331Z,1031.41
2018-09-25T07:27:20.357Z,1031.39
2018-09-25T07:28:20.386Z,1031.41
2018-09-25T07:29:20.413Z,1031.4
2018-09-25T07:30:20.441Z,1031.41
2018-09-25T07:31:20.468Z,1031.37
2018-09-25T07:32:20.496Z,1031.37
2018-09-25T07:33:20.524Z,1031.33
2018-09-25T07:34:20.554Z,1031.3
2018-09-25T07:35:20.578Z,1031.3
2018-09-25T07:36:20.605Z,1031.26
2018-09-25T07:37:20.640Z,1031.2
2018-09-25T07:38:20.660Z,1031.18
2018-09-25T07:39:20.688Z,1031.18
2018-09-25T07:40:20.716Z,1031.18
2018-09-25T07:41:20.744Z,1031.15
2018-09-25T07:43:20.797Z,1031.22
2018-09-25T07:44:20.825Z,1031.15
2018-09-25T07:45:20.852Z,1031.23
2018-09-25T07:46:20.878Z,1031.17
2018-09-25T07:47:20.907Z,1031.17
2018-09-25T07:48:20.978Z,1031.18
2018-09-25T07:49:20.960Z,1031.23
2018-09-25T07:50:20.988Z,1031.23
2018-09-25T07:51:21.014Z,1031.21
2018-09-25T07:52:21.041Z,1031.21
2018-09-25T07:53:21.068Z,1031.21
2018-09-25T07:54:21.095Z,1031.25
2018-09-25T07:55:21.122Z,1031.25
2018-09-25T07:56:21.148Z,1031.22
2018-09-25T07:57:21.175Z,1031.27
2018-09-25T07:59:21.229Z,1031.26
2018-09-25T08:00:21.257Z,1031.23
2018-09-25T08:01:21.282Z,1031.25
2018-09-25T08:02:21.308Z,1031.29
2018-09-25T08:03:21.387Z,1031.27
2018-09-25T08:04:21.361Z,1031.34
2018-09-25T08:05:21.387Z,1031.34
2018-09-25T08:06:21.413Z,1031.27
2018-09-25T08:07:21.440Z,1031.31
2018-09-25T08:08:21.466Z,1031.33
2018-09-25T08:09:21.493Z,1031.36
2018-09-25T08:10:21.520Z,1031.35
2018-09-25T08:11:21.544Z,1031.31
2018-09-25T08:12:21.571Z,1031.37
2018-09-25T08:13:21.601Z,1031.39
2018-09-25T08:15:21.670Z,1031.42
2018-09-25T08:16:21.676Z,1031.4
2018-09-25T08:17:21.702Z,1031.4
2018-09-25T08:18:21.731Z,1031.37
2018-09-25T08:19:21.754Z,1031.37
2018-09-25T08:20:21.779Z,1031.38
2018-09-25T08:21:21.807Z,1031.39
2018-09-25T08:22:21.835Z,1031.38
2018-09-25T08:23:21.858Z,1031.4
2018-09-25T08:24:21.884Z,1031.46
2018-09-25T08:25:21.909Z,1031.43
2018-09-25T08:26:21.936Z,1031.43
2018-09-25T08:27:21.962Z,1031.47
2018-09-25T08:28:21.988Z,1031.46
2018-09-25T08:29:22.013Z,1031.51
2018-09-25T08:31:22.065Z,1031.49
2018-09-25T08:32:22.092Z,1031.43
2018-09-25T08:33:22.116Z,1031.45
2018-09-25T08:34:22.143Z,1031.44
2018-09-25T08:35:22.169Z,1031.43
2018-09-25T08:36:22.194Z,1031.44
2018-09-25T08:37:22.220Z,1031.44
2018-09-25T08:38:22.309Z,1031.53
2018-09-25T08:39:22.420Z,1031.53
2018-09-25T08:40:22.298Z,1031.56
2018-09-25T08:41:22.323Z,1031.56
2018-09-25T08:42:22.349Z,1031.56
2018-09-25T08:43:22.374Z,1031.58
2018-09-25T08:44:22.401Z,1031.56
2018-09-25T08:46:22.453Z,1031.65
2018-09-25T08:47:22.486Z,1031.63
2018-09-25T08:48:22.505Z,1031.61
2018-09-25T08:49:22.529Z,1031.61
2018-09-25T08:50:22.554Z,1031.63
2018-09-25T08:51:22.579Z,1031.65
2018-09-25T08:52:22.606Z,1031.67
2018-09-25T08:53:22.635Z,1031.69
2018-09-25T08:54:22.657Z,1031.7
2018-09-25T08:55:22.682Z,1031.67
2018-09-25T08:56:22.708Z,1031.64
2018-09-25T08:57:22.733Z,1031.67
2018-09-25T08:58:22.759Z,1031.65
2018-09-25T08:59:22.785Z,1031.69
2018-09-25T09:00:22.811Z,1031.66
2018-09-25T09:01:22.837Z,1031.7
2018-09-25T09:02:22.862Z,1031.7
2018-09-25T09:03:22.887Z,1031.67
2018-09-25T09:04:22.913Z,1031.75
2018-09-25T09:05:22.938Z,1031.75
2018-09-25T09:06:22.964Z,1031.71
2018-09-25T09:07:22.990Z,1031.77
2018-09-25T09:08:23.022Z,1031.79
2018-09-25T09:09:23.040Z,1031.8
2018-09-25T09:10:23.065Z,1031.8
2018-09-25T09:11:23.090Z,1031.84
2018-09-25T09:12:23.218Z,1031.88
2018-09-25T09:13:23.144Z,1031.82
2018-09-25T09:14:23.168Z,1031.83
2018-09-25T09:15:23.192Z,1031.89
2018-09-25T09:16:23.217Z,1031.9
2018-09-25T09:18:23.269Z,1031.87
2018-09-25T09:19:23.294Z,1031.92
2018-09-25T09:20:23.319Z,1031.89
2018-09-25T09:21:23.345Z,1031.93
2018-09-25T09:22:23.370Z,1031.97
2018-09-25T09:23:23.395Z,1031.91
2018-09-25T09:24:23.421Z,1031.87
2018-09-25T09:25:23.446Z,1031.94
2018-09-25T09:26:23.471Z,1031.89
2018-09-25T09:27:23.496Z,1031.94
2018-09-25T09:28:23.521Z,1031.97
2018-09-25T09:29:23.546Z,1032
2018-09-25T09:30:23.571Z,1032
2018-09-25T09:31:23.596Z,1031.99
2018-09-25T09:32:23.640Z,1031.94
2018-09-25T09:34:23.672Z,1031.93
2018-09-25T09:35:23.697Z,1031.95
2018-09-25T09:36:23.722Z,1031.95
2018-09-25T09:37:23.746Z,1031.93
2018-09-25T09:38:23.775Z,1031.91
2018-09-25T09:39:23.797Z,1031.88
2018-09-25T09:40:23.821Z,1031.91
2018-09-25T09:41:23.948Z,1031.92
2018-09-25T09:42:23.869Z,1031.89
2018-09-25T09:43:23.896Z,1031.94
2018-09-25T09:44:23.919Z,1031.99
2018-09-25T09:45:23.943Z,1031.93
2018-09-25T09:46:23.968Z,1032.05
2018-09-25T09:47:23.996Z,1032.02
2018-09-25T09:48:24.019Z,1032.07
2018-09-25T09:50:24.137Z,1032.06
2018-09-25T09:51:24.091Z,1032.02
2018-09-25T09:52:24.123Z,1032.03
2018-09-25T09:53:24.140Z,1031.96
2018-09-25T09:54:24.165Z,1032.01
2018-09-25T09:55:24.189Z,1031.98
2018-09-25T09:56:24.291Z,1031.9
2018-09-25T09:57:24.239Z,1031.91
2018-09-25T09:58:24.263Z,1032
2018-09-25T09:59:24.288Z,1031.99
2018-09-25T10:00:24.311Z,1032
2018-09-25T10:01:24.339Z,1032.03
2018-09-25T10:02:24.361Z,1032.01
2018-09-25T10:03:24.383Z,1032
2018-09-25T10:04:24.407Z,1032.01
2018-09-25T10:06:24.456Z,1032.06
2018-09-25T10:07:24.481Z,1032.05
2018-09-25T10:08:24.503Z,1032.1
2018-09-25T10:09:24.527Z,1032.06
2018-09-25T10:10:24.552Z,1032.06
2018-09-25T10:11:24.574Z,1032.02
2018-09-25T10:12:24.615Z,1031.99
2018-09-25T10:13:24.622Z,1032.03
2018-09-25T10:14:24.646Z,1032.06
2018-09-25T10:15:24.671Z,1032.05
2018-09-25T10:16:24.692Z,1032.04
2018-09-25T10:17:24.716Z,1032.04
2018-09-25T10:18:24.740Z,1032.06
2018-09-25T10:19:24.764Z,1032.06
2018-09-25T10:21:24.812Z,1032.1
2018-09-25T10:22:24.834Z,1032.09
2018-09-25T10:23:24.859Z,1032
2018-09-25T10:24:24.881Z,1032.03
2018-09-25T10:25:24.905Z,1032.07
2018-09-25T10:26:24.928Z,1032.04
2018-09-25T10:27:25.023Z,1032.04
2018-09-25T10:28:24.975Z,1032.1
2018-09-25T10:29:24.998Z,1032.03
2018-09-25T10:30:25.021Z,1032.03
2018-09-25T10:31:25.045Z,1032.02
2018-09-25T10:32:25.074Z,1032.07
2018-09-25T10:33:25.091Z,1032.06
2018-09-25T10:34:25.114Z,1032.14
2018-09-25T10:35:25.137Z,1032.08
2018-09-25T10:36:25.161Z,1032.13
2018-09-25T10:37:25.185Z,1032.1
2018-09-25T10:38:25.207Z,1032.05
2018-09-25T10:39:25.230Z,1032.07
2018-09-25T10:40:25.252Z,1032.13
2018-09-25T10:41:25.276Z,1032.09
2018-09-25T10:42:25.299Z,1032.03
2018-09-25T10:43:25.333Z,1032.08
2018-09-25T10:44:25.345Z,1032.1
2018-09-25T10:45:25.369Z,1032.1
2018-09-25T10:46:25.392Z,1032.08
2018-09-25T10:47:25.414Z,1032.13
2018-09-25T10:48:25.436Z,1032.08
2018-09-25T10:49:25.460Z,1032.09
2018-09-25T10:50:25.484Z,1032.09
2018-09-25T10:51:25.506Z,1032.12
2018-09-25T10:53:25.552Z,1032.17
2018-09-25T10:54:25.579Z,1032.2
2018-09-25T10:55:25.643Z,1032.17
2018-09-25T10:56:25.623Z,1032.15
2018-09-25T10:57:25.645Z,1032.15
2018-09-25T10:58:25.669Z,1032.17
2018-09-25T10:59:25.691Z,1032.21
2018-09-25T11:00:25.714Z,1032.16
2018-09-25T11:01:25.737Z,1032.23
2018-09-25T11:02:25.759Z,1032.22
2018-09-25T11:03:25.783Z,1032.21
2018-09-25T11:04:25.810Z,1032.2
2018-09-25T11:05:25.830Z,1032.17
2018-09-25T11:06:25.851Z,1032.14
2018-09-25T11:07:25.874Z,1032.15
2018-09-25T11:09:25.920Z,1032.18
2018-09-25T11:10:25.943Z,1032.2
2018-09-25T11:11:25.966Z,1032.16
2018-09-25T11:12:25.989Z,1032.13
2018-09-25T11:13:26.015Z,1032.09
2018-09-25T11:14:26.035Z,1032.14
2018-09-25T11:15:26.058Z,1032.16
2018-09-25T11:16:26.081Z,1032.14
2018-09-25T11:17:26.103Z,1032.17
2018-09-25T11:18:26.226Z,1032.14
2018-09-25T11:19:26.148Z,1032.1
2018-09-25T11:20:26.172Z,1032.08
2018-09-25T11:21:26.194Z,1032.11
2018-09-25T11:22:26.217Z,1032.09
2018-09-25T11:23:26.239Z,1032.12
2018-09-25T11:25:26.336Z,1032.17
2018-09-25T11:26:26.307Z,1032.16
2018-09-25T11:27:26.329Z,1032.21
2018-09-25T11:28:26.351Z,1032.21
2018-09-25T11:29:26.374Z,1032.25
2018-09-25T11:30:26.397Z,1032.28
2018-09-25T11:31:26.422Z,1032.28
2018-09-25T11:32:26.441Z,1032.29
2018-09-25T11:33:26.464Z,1032.24
2018-09-25T11:34:26.486Z,1032.26
2018-09-25T11:35:26.639Z,1032.25
2018-09-25T11:36:26.530Z,1032.26
2018-09-25T11:37:26.554Z,1032.24
2018-09-25T11:38:26.578Z,1032.27
2018-09-25T11:39:26.604Z,1032.23
2018-09-25T11:41:26.754Z,1032.27
2018-09-25T11:42:26.666Z,1032.27
2018-09-25T11:43:26.688Z,1032.24
2018-09-25T11:44:26.711Z,1032.22
2018-09-25T11:45:26.736Z,1032.35
2018-09-25T11:46:26.754Z,1032.32
2018-09-25T11:47:26.781Z,1032.37
2018-09-25T11:48:26.800Z,1032.36
2018-09-25T11:49:26.823Z,1032.32
2018-09-25T11:50:26.847Z,1032.34
2018-09-25T11:51:26.867Z,1032.3
2018-09-25T11:52:26.889Z,1032.23
2018-09-25T11:53:26.912Z,1032.23
2018-09-25T11:54:26.935Z,1032.21
2018-09-25T11:56:27.059Z,1032.21
2018-09-25T11:57:27.002Z,1032.24
2018-09-25T11:58:27.081Z,1032.19
2018-09-25T11:59:27.048Z,1032.21
2018-09-25T12:00:27.069Z,1032.2
2018-09-25T12:01:27.094Z,1032.18
2018-09-25T12:02:27.114Z,1032.28
2018-09-25T12:03:27.137Z,1032.32
2018-09-25T12:04:27.175Z,1032.27
2018-09-25T12:05:27.182Z,1032.32
2018-09-25T12:06:27.213Z,1032.28
2018-09-25T12:07:27.226Z,1032.24
2018-09-25T12:08:27.249Z,1032.23
2018-09-25T12:09:27.272Z,1032.31
2018-09-25T12:10:27.296Z,1032.29
2018-09-25T12:11:27.316Z,1032.29
2018-09-25T12:12:27.338Z,1032.32
2018-09-25T12:13:27.361Z,1032.34
2018-09-25T12:14:27.383Z,1032.33
2018-09-25T12:15:27.411Z,1032.34
2018-09-25T12:16:27.428Z,1032.39
2018-09-25T12:17:27.475Z,1032.32
2018-09-25T12:18:27.473Z,1032.39
2018-09-25T12:19:27.495Z,1032.33
2018-09-25T12:20:27.517Z,1032.33
2018-09-25T12:21:27.540Z,1032.33
2018-09-25T12:22:27.564Z,1032.36
2018-09-25T12:23:27.675Z,1032.32
2018-09-25T12:24:27.671Z,1032.31
2018-09-25T12:25:27.629Z,1032.28
2018-09-25T12:26:27.651Z,1032.3
2018-09-25T12:28:27.696Z,1032.42
2018-09-25T12:29:27.720Z,1032.37
2018-09-25T12:30:27.741Z,1032.35
2018-09-25T12:31:27.763Z,1032.33
2018-09-25T12:32:27.791Z,1032.29
2018-09-25T12:33:27.809Z,1032.36
2018-09-25T12:34:27.830Z,1032.38
2018-09-25T12:35:27.851Z,1032.37
2018-09-25T12:36:27.876Z,1032.34
2018-09-25T12:37:27.897Z,1032.31
2018-09-25T12:38:27.918Z,1032.29
2018-09-25T12:39:27.942Z,1032.37
2018-09-25T12:40:27.965Z,1032.33
2018-09-25T12:41:27.987Z,1032.32
2018-09-25T12:42:28.009Z,1032.36
2018-09-25T12:44:28.054Z,1032.33
2018-09-25T12:45:28.076Z,1032.29
2018-09-25T12:46:28.149Z,1032.32
2018-09-25T12:47:28.120Z,1032.28
2018-09-25T12:48:28.143Z,1032.35
2018-09-25T12:49:28.165Z,1032.34